Terminal Aerodrome Forecast
Issued by NWS Spokane, WA

Home | Current Version | Previous Version | Text Only | Print | Product List | Glossary On
Versions: 1 2 3 4 5 6 7 8 9 10 11 12 13 14 15 16 17 18 19 20 21 22 23 24 25 26 27 28 29 30 31 32 33 34 35 36 37 38
000
FTUS46 KOTX 221724
TAFGEG
TAF
KGEG 221724Z 2218/2318 07011KT P6SM SCT050 BKN070 BKN150
     FM222200 07010KT P6SM -RA OVC030
     FM230200 12006KT 4SM -RASN OVC025
     FM231200 08003KT P6SM BKN007
     FM231500 04003KT 3SM BR OVC004=

USA.gov is the U.S. government's official web portal to all federal, state and local government web resources and services.